Station Historical Data
Daily Summary for April 3, 2017 Units:  Both    English   Metric
« Previous Day
Next Day »
Daily Weekly Monthly Yearly Custom
  High: Low: Average:
Temperature: 69.9 °F /  21.1 °C 37.4 °F /  3 °C 54.3 °F /  12.4 °C
Dew Point: 50.9 °F /  10.5 °C 31.1 °F /  -0.5 °C 38.5 °F /  3.6 °C
Humidity: 88% 31% 58%
Wind Speed: 16.0mph /  25.7km/h - 3mph /  4.8km/h
Wind Gust: 19.0mph /  30.6km/h - -
Wind- - East
Pressure: 30.10 in /  1019.2 hPa 29.50 in /  998.9 hPa -
Precipitation: 0.00 in /  0 mm    
Historical Graphs
 
 
Tabular Data for April 3, 2017
Time Temperature Dew Point Pressure Wind Wind Speed Wind Gust Humidity Rainfall Rate (Hourly)
00:04 39.0 °F /  3.9 °C 32.4 °F /  0.2 °C 30.10in /  1019.2hPa Calm   1.0mph /  1.6km/h 77% 0.00in /  0mm
00:09 38.8 °F /  3.8 °C 32.2 °F /  0.1 °C 30.10in /  1019.2hPa Calm   1.0mph /  1.6km/h 77% 0.00in /  0mm
00:14 38.8 °F /  3.8 °C 32.5 °F /  0.3 °C 30.10in /  1019.2hPa SSW 1.0mph /  1.6km/h 2.0mph /  3.2km/h 78% 0.00in /  0mm
00:19 38.7 °F /  3.7 °C 32.4 °F /  0.2 °C 30.10in /  1019.2hPa Calm   2.0mph /  3.2km/h 78% 0.00in /  0mm
00:24 38.5 °F /  3.6 °C 32.2 °F /  0.1 °C 30.10in /  1019.2hPa Calm     78% 0.00in /  0mm
00:29 38.8 °F /  3.8 °C 32.5 °F /  0.3 °C 30.10in /  1019.2hPa Calm     78% 0.00in /  0mm
00:34 38.8 °F /  3.8 °C 32.2 °F /  0.1 °C 30.09in /  1018.8hPa Calm     77% 0.00in /  0mm
00:39 38.7 °F /  3.7 °C 32.1 °F /  0.1 °C 30.09in /  1018.8hPa Calm     77% 0.00in /  0mm
00:44 38.7 °F /  3.7 °C 32.1 °F /  0.1 °C 30.09in /  1018.8hPa Calm     77% 0.00in /  0mm
00:49 38.5 °F /  3.6 °C 31.9 °F /  -0.1 °C 30.09in /  1018.8hPa Calm     77% 0.00in /  0mm
00:54 38.4 °F /  3.6 °C 32.1 °F /  0.1 °C 30.09in /  1018.8hPa Calm     78% 0.00in /  0mm
00:59 38.6 °F /  3.7 °C 32.0 °F /  0 °C 30.09in /  1018.8hPa Calm     77% 0.00in /  0mm
01:04 38.5 °F /  3.6 °C 31.9 °F /  -0.1 °C 30.09in /  1018.8hPa Calm     77% 0.00in /  0mm
01:09 38.2 °F /  3.4 °C 31.9 °F /  -0.1 °C 30.09in /  1018.8hPa Calm     78% 0.00in /  0mm
01:14 37.9 °F /  3.3 °C 31.7 °F /  -0.2 °C 30.09in /  1018.8hPa Calm     78% 0.00in /  0mm
01:19 37.7 °F /  3.2 °C 31.8 °F /  -0.1 °C 30.09in /  1018.8hPa Calm     79% 0.00in /  0mm
01:24 38.2 °F /  3.4 °C 31.9 °F /  -0.1 °C 30.09in /  1018.8hPa Calm     78% 0.00in /  0mm
01:29 38.2 °F /  3.4 °C 31.6 °F /  -0.2 °C 30.09in /  1018.8hPa Calm     77% 0.00in /  0mm
01:34 37.9 °F /  3.3 °C 31.3 °F /  -0.4 °C 30.09in /  1018.8hPa Calm     77% 0.00in /  0mm
01:39 37.7 °F /  3.2 °C 31.5 °F /  -0.3 °C 30.09in /  1018.8hPa Calm     78% 0.00in /  0mm
01:44 38.0 °F /  3.3 °C 31.7 °F /  -0.2 °C 30.08in /  1018.5hPa Calm     78% 0.00in /  0mm
01:49 38.2 °F /  3.4 °C 31.9 °F /  -0.1 °C 30.08in /  1018.5hPa Calm     78% 0.00in /  0mm
01:54 38.2 °F /  3.4 °C 31.9 °F /  -0.1 °C 30.08in /  1018.5hPa Calm     78% 0.00in /  0mm
01:59 38.2 °F /  3.4 °C 31.9 °F /  -0.1 °C 30.08in /  1018.5hPa Calm     78% 0.00in /  0mm
02:04 38.3 °F /  3.5 °C 32.4 °F /  0.2 °C 30.07in /  1018.2hPa Calm     79% 0.00in /  0mm
02:09 38.3 °F /  3.5 °C 32.4 °F /  0.2 °C 30.07in /  1018.2hPa Calm     79% 0.00in /  0mm
02:14 38.3 °F /  3.5 °C 32.4 °F /  0.2 °C 30.06in /  1017.8hPa Calm     79% 0.00in /  0mm
02:19 38.1 °F /  3.4 °C 31.8 °F /  -0.1 °C 30.06in /  1017.8hPa Calm     78% 0.00in /  0mm
02:24 38.0 °F /  3.3 °C 32.1 °F /  0.1 °C 30.06in /  1017.8hPa Calm     79% 0.00in /  0mm
02:29 37.8 °F /  3.2 °C 31.9 °F /  -0.1 °C 30.05in /  1017.5hPa Calm     79% 0.00in /  0mm
02:34 38.0 °F /  3.3 °C 32.1 °F /  0.1 °C 30.05in /  1017.5hPa Calm     79% 0.00in /  0mm
02:39 38.0 °F /  3.3 °C 31.7 °F /  -0.2 °C 30.06in /  1017.8hPa Calm     78% 0.00in /  0mm
02:44 37.7 °F /  3.2 °C 31.1 °F /  -0.5 °C 30.06in /  1017.8hPa Calm     77% 0.00in /  0mm
02:49 37.4 °F /  3 °C 31.2 °F /  -0.4 °C 30.05in /  1017.5hPa Calm     78% 0.00in /  0mm
02:54 37.4 °F /  3 °C 31.5 °F /  -0.3 °C 30.05in /  1017.5hPa Calm   2.0mph /  3.2km/h 79% 0.00in /  0mm
02:59 37.9 °F /  3.3 °C 31.3 °F /  -0.4 °C 30.04in /  1017.2hPa SSW 1.0mph /  1.6km/h 1.0mph /  1.6km/h 77% 0.00in /  0mm
03:04 38.1 °F /  3.4 °C 31.5 °F /  -0.3 °C 30.04in /  1017.2hPa Calm   2.0mph /  3.2km/h 77% 0.00in /  0mm
03:09 38.3 °F /  3.5 °C 31.4 °F /  -0.3 °C 30.04in /  1017.2hPa Calm     76% 0.00in /  0mm
03:14 38.3 °F /  3.5 °C 31.1 °F /  -0.5 °C 30.04in /  1017.2hPa Calm     75% 0.00in /  0mm
03:19 38.5 °F /  3.6 °C 31.6 °F /  -0.2 °C 30.03in /  1016.8hPa Calm     76% 0.00in /  0mm
03:24 38.9 °F /  3.8 °C 31.6 °F /  -0.2 °C 30.03in /  1016.8hPa Calm     75% 0.00in /  0mm
03:29 39.1 °F /  3.9 °C 31.5 °F /  -0.3 °C 30.03in /  1016.8hPa Calm     74% 0.00in /  0mm
03:34 39.3 °F /  4.1 °C 31.7 °F /  -0.2 °C 30.03in /  1016.8hPa Calm     74% 0.00in /  0mm
03:39 39.4 °F /  4.1 °C 31.5 °F /  -0.3 °C 30.03in /  1016.8hPa Calm     73% 0.00in /  0mm
03:44 39.6 °F /  4.2 °C 31.7 °F /  -0.2 °C 30.03in /  1016.8hPa Calm     73% 0.00in /  0mm
03:49 39.9 °F /  4.4 °C 31.9 °F /  -0.1 °C 30.03in /  1016.8hPa Calm     73% 0.00in /  0mm
03:54 40.1 °F /  4.5 °C 31.8 °F /  -0.1 °C 30.02in /  1016.5hPa Calm   2.0mph /  3.2km/h 72% 0.00in /  0mm
03:59 40.3 °F /  4.6 °C 32.3 °F /  0.2 °C 30.03in /  1016.8hPa Calm     73% 0.00in /  0mm
04:04 40.4 °F /  4.7 °C 32.4 °F /  0.2 °C 30.03in /  1016.8hPa Calm     73% 0.00in /  0mm
04:09 40.3 °F /  4.6 °C 32.0 °F /  0 °C 30.03in /  1016.8hPa Calm     72% 0.00in /  0mm
04:14 40.4 °F /  4.7 °C 32.4 °F /  0.2 °C 30.02in /  1016.5hPa Calm     73% 0.00in /  0mm
04:19 40.6 °F /  4.8 °C 32.6 °F /  0.3 °C 30.03in /  1016.8hPa Calm   2.0mph /  3.2km/h 73% 0.00in /  0mm
04:24 40.8 °F /  4.9 °C 32.5 °F /  0.3 °C 30.03in /  1016.8hPa Calm   2.0mph /  3.2km/h 72% 0.00in /  0mm
04:29 40.8 °F /  4.9 °C 32.5 °F /  0.3 °C 30.03in /  1016.8hPa Calm     72% 0.00in /  0mm
04:34 40.7 °F /  4.8 °C 32.4 °F /  0.2 °C 30.03in /  1016.8hPa Calm     72% 0.00in /  0mm
04:39 40.8 °F /  4.9 °C 32.5 °F /  0.3 °C 30.03in /  1016.8hPa Calm     72% 0.00in /  0mm
04:44 41.0 °F /  5 °C 32.7 °F /  0.4 °C 30.03in /  1016.8hPa Calm     72% 0.00in /  0mm
04:49 41.2 °F /  5.1 °C 32.9 °F /  0.5 °C 30.02in /  1016.5hPa Calm     72% 0.00in /  0mm
04:54 41.3 °F /  5.2 °C 33.0 °F /  0.6 °C 30.03in /  1016.8hPa Calm     72% 0.00in /  0mm
04:59 41.3 °F /  5.2 °C 32.6 °F /  0.3 °C 30.03in /  1016.8hPa Calm     71% 0.00in /  0mm
05:04 41.4 °F /  5.2 °C 32.7 °F /  0.4 °C 30.03in /  1016.8hPa Calm     71% 0.00in /  0mm
05:09 41.4 °F /  5.2 °C 32.7 °F /  0.4 °C 30.03in /  1016.8hPa Calm     71% 0.00in /  0mm
05:14 41.4 °F /  5.2 °C 33.0 °F /  0.6 °C 30.03in /  1016.8hPa Calm     72% 0.00in /  0mm
05:19 41.4 °F /  5.2 °C 33.0 °F /  0.6 °C 30.03in /  1016.8hPa Calm     72% 0.00in /  0mm
05:24 41.6 °F /  5.3 °C 33.2 °F /  0.7 °C 30.03in /  1016.8hPa Calm     72% 0.00in /  0mm
05:29 41.8 °F /  5.4 °C 33.4 °F /  0.8 °C 30.03in /  1016.8hPa Calm   2.0mph /  3.2km/h 72% 0.00in /  0mm
05:34 42.1 °F /  5.6 °C 33.4 °F /  0.8 °C 30.03in /  1016.8hPa Calm   2.0mph /  3.2km/h 71% 0.00in /  0mm
05:39 42.1 °F /  5.6 °C 33.4 °F /  0.8 °C 30.03in /  1016.8hPa Calm   2.0mph /  3.2km/h 71% 0.00in /  0mm
05:44 42.2 °F /  5.7 °C 33.5 °F /  0.8 °C 30.03in /  1016.8hPa Calm   1.0mph /  1.6km/h 71% 0.00in /  0mm
05:49 42.5 °F /  5.8 °C 33.8 °F /  1 °C 30.04in /  1017.2hPa Calm   1.0mph /  1.6km/h 71% 0.00in /  0mm
05:54 42.5 °F /  5.8 °C 33.4 °F /  0.8 °C 30.03in /  1016.8hPa Calm     70% 0.00in /  0mm
05:59 42.8 °F /  6 °C 34.0 °F /  1.1 °C 30.03in /  1016.8hPa Calm   2.0mph /  3.2km/h 71% 0.00in /  0mm
06:04 42.8 °F /  6 °C 34.0 °F /  1.1 °C 30.03in /  1016.8hPa Calm   1.0mph /  1.6km/h 71% 0.00in /  0mm
06:09 42.9 °F /  6.1 °C 33.8 °F /  1 °C 30.03in /  1016.8hPa Calm     70% 0.00in /  0mm
06:14 43.0 °F /  6.1 °C 33.9 °F /  1.1 °C 30.03in /  1016.8hPa East 2.0mph /  3.2km/h 2.0mph /  3.2km/h 70% 0.00in /  0mm
06:19 43.3 °F /  6.3 °C 34.2 °F /  1.2 °C 30.03in /  1016.8hPa East 3.0mph /  4.8km/h 3.0mph /  4.8km/h 70% 0.00in /  0mm
06:24 43.4 °F /  6.3 °C 33.9 °F /  1.1 °C 30.02in /  1016.5hPa Calm   3.0mph /  4.8km/h 69% 0.00in /  0mm
06:29 43.5 °F /  6.4 °C 34.0 °F /  1.1 °C 30.02in /  1016.5hPa East 2.0mph /  3.2km/h 3.0mph /  4.8km/h 69% 0.00in /  0mm
06:34 43.7 °F /  6.5 °C 34.2 °F /  1.2 °C 30.02in /  1016.5hPa East 1.0mph /  1.6km/h 5.0mph /  8km/h 69% 0.00in /  0mm
06:39 43.8 °F /  6.6 °C 33.9 °F /  1.1 °C 30.02in /  1016.5hPa East 2.0mph /  3.2km/h 5.0mph /  8km/h 68% 0.00in /  0mm
06:44 44.0 °F /  6.7 °C 34.1 °F /  1.2 °C 30.02in /  1016.5hPa ESE 1.0mph /  1.6km/h 4.0mph /  6.4km/h 68% 0.00in /  0mm
06:49 44.2 °F /  6.8 °C 34.3 °F /  1.3 °C 30.03in /  1016.8hPa ESE 2.0mph /  3.2km/h 4.0mph /  6.4km/h 68% 0.00in /  0mm
06:54 44.3 °F /  6.8 °C 34.0 °F /  1.1 °C 30.03in /  1016.8hPa ESE 1.0mph /  1.6km/h 3.0mph /  4.8km/h 67% 0.00in /  0mm
06:59 44.5 °F /  6.9 °C 34.2 °F /  1.2 °C 30.04in /  1017.2hPa Calm     67% 0.00in /  0mm
07:04 44.7 °F /  7.1 °C 34.4 °F /  1.3 °C 30.05in /  1017.5hPa Calm     67% 0.00in /  0mm
07:09 44.8 °F /  7.1 °C 34.5 °F /  1.4 °C 30.05in /  1017.5hPa Calm     67% 0.00in /  0mm
07:14 44.8 °F /  7.1 °C 34.1 °F /  1.2 °C 30.06in /  1017.8hPa Calm     66% 0.00in /  0mm
07:19 44.9 °F /  7.2 °C 34.2 °F /  1.2 °C 30.06in /  1017.8hPa Calm     66% 0.00in /  0mm
07:24 45.2 °F /  7.3 °C 34.9 °F /  1.6 °C 30.06in /  1017.8hPa ESE 1.0mph /  1.6km/h 2.0mph /  3.2km/h 67% 0.00in /  0mm
07:29 45.4 °F /  7.4 °C 35.1 °F /  1.7 °C 30.06in /  1017.8hPa SSW 3.0mph /  4.8km/h 5.0mph /  8km/h 67% 0.00in /  0mm
07:34 45.4 °F /  7.4 °C 35.5 °F /  1.9 °C 30.05in /  1017.5hPa Calm   4.0mph /  6.4km/h 68% 0.00in /  0mm
07:39 45.4 °F /  7.4 °C 35.5 °F /  1.9 °C 30.05in /  1017.5hPa South 1.0mph /  1.6km/h 4.0mph /  6.4km/h 68% 0.00in /  0mm
07:44 45.6 °F /  7.6 °C 36.0 °F /  2.2 °C 30.06in /  1017.8hPa Calm   2.0mph /  3.2km/h 69% 0.00in /  0mm
07:49 45.6 °F /  7.6 °C 36.0 °F /  2.2 °C 30.06in /  1017.8hPa Calm   2.0mph /  3.2km/h 69% 0.00in /  0mm
07:54 45.5 °F /  7.5 °C 36.3 °F /  2.4 °C 30.06in /  1017.8hPa Calm   2.0mph /  3.2km/h 70% 0.00in /  0mm
07:59 45.6 °F /  7.6 °C 36.0 °F /  2.2 °C 30.05in /  1017.5hPa East 1.0mph /  1.6km/h 3.0mph /  4.8km/h 69% 0.00in /  0mm
08:04 45.6 °F /  7.6 °C 36.4 °F /  2.4 °C 30.05in /  1017.5hPa NE 1.0mph /  1.6km/h 4.0mph /  6.4km/h 70% 0.00in /  0mm
08:09 45.6 °F /  7.6 °C 36.0 °F /  2.2 °C 30.05in /  1017.5hPa NE 2.0mph /  3.2km/h 3.0mph /  4.8km/h 69% 0.00in /  0mm
08:14 45.8 °F /  7.7 °C 36.2 °F /  2.3 °C 30.04in /  1017.2hPa NE 2.0mph /  3.2km/h 3.0mph /  4.8km/h 69% 0.00in /  0mm
08:19 46.1 °F /  7.8 °C 36.1 °F /  2.3 °C 30.04in /  1017.2hPa ENE 2.0mph /  3.2km/h 4.0mph /  6.4km/h 68% 0.00in /  0mm
08:24 46.3 °F /  7.9 °C 35.9 °F /  2.2 °C 30.04in /  1017.2hPa ENE 2.0mph /  3.2km/h 5.0mph /  8km/h 67% 0.00in /  0mm
08:29 46.5 °F /  8.1 °C 36.1 °F /  2.3 °C 30.04in /  1017.2hPa ENE 1.0mph /  1.6km/h 4.0mph /  6.4km/h 67% 0.00in /  0mm
08:34 46.9 °F /  8.3 °C 36.5 °F /  2.5 °C 30.04in /  1017.2hPa ENE 3.0mph /  4.8km/h 4.0mph /  6.4km/h 67% 0.00in /  0mm
08:39 47.2 °F /  8.4 °C 36.8 °F /  2.7 °C 30.04in /  1017.2hPa ENE 1.0mph /  1.6km/h 3.0mph /  4.8km/h 67% 0.00in /  0mm
08:44 47.6 °F /  8.7 °C 36.8 °F /  2.7 °C 30.03in /  1016.8hPa ENE 2.0mph /  3.2km/h 6.0mph /  9.7km/h 66% 0.00in /  0mm
08:49 47.8 °F /  8.8 °C 36.6 °F /  2.6 °C 30.02in /  1016.5hPa ENE 3.0mph /  4.8km/h 6.0mph /  9.7km/h 65% 0.00in /  0mm
08:54 48.0 °F /  8.9 °C 36.8 °F /  2.7 °C 30.01in /  1016.1hPa ENE 3.0mph /  4.8km/h 8.0mph /  12.9km/h 65% 0.00in /  0mm
08:59 48.2 °F /  9 °C 37.0 °F /  2.8 °C 30.01in /  1016.1hPa ENE 3.0mph /  4.8km/h 8.0mph /  12.9km/h 65% 0.00in /  0mm
09:04 48.5 °F /  9.2 °C 37.3 °F /  2.9 °C 30.00in /  1015.8hPa ENE 3.0mph /  4.8km/h 7.0mph /  11.3km/h 65% 0.00in /  0mm
09:09 49.1 °F /  9.5 °C 37.4 °F /  3 °C 30.01in /  1016.1hPa East 5.0mph /  8km/h 7.0mph /  11.3km/h 64% 0.00in /  0mm
09:14 49.8 °F /  9.9 °C 38.1 °F /  3.4 °C 30.00in /  1015.8hPa ENE 2.0mph /  3.2km/h 5.0mph /  8km/h 64% 0.00in /  0mm
09:19 50.3 °F /  10.2 °C 37.8 °F /  3.2 °C 30.00in /  1015.8hPa ENE 2.0mph /  3.2km/h 7.0mph /  11.3km/h 62% 0.00in /  0mm
09:24 50.8 °F /  10.4 °C 37.8 °F /  3.2 °C 30.00in /  1015.8hPa ENE 2.0mph /  3.2km/h 8.0mph /  12.9km/h 61% 0.00in /  0mm
09:29 51.5 °F /  10.8 °C 38.1 °F /  3.4 °C 30.00in /  1015.8hPa ENE 4.0mph /  6.4km/h 8.0mph /  12.9km/h 60% 0.00in /  0mm
09:34 52.7 °F /  11.5 °C 38.8 °F /  3.8 °C 29.99in /  1015.5hPa ENE 4.0mph /  6.4km/h 7.0mph /  11.3km/h 59% 0.00in /  0mm
09:39 53.5 °F /  11.9 °C 39.5 °F /  4.2 °C 29.99in /  1015.5hPa ESE 3.0mph /  4.8km/h 10.0mph /  16.1km/h 59% 0.00in /  0mm
09:44 54.6 °F /  12.6 °C 39.7 °F /  4.3 °C 29.99in /  1015.5hPa SE 2.0mph /  3.2km/h 6.0mph /  9.7km/h 57% 0.00in /  0mm
09:49 55.1 °F /  12.8 °C 39.2 °F /  4 °C 29.99in /  1015.5hPa East 3.0mph /  4.8km/h 8.0mph /  12.9km/h 55% 0.00in /  0mm
09:54 55.5 °F /  13.1 °C 39.1 °F /  3.9 °C 29.99in /  1015.5hPa East 4.0mph /  6.4km/h 8.0mph /  12.9km/h 54% 0.00in /  0mm
09:59 56.6 °F /  13.7 °C 40.1 °F /  4.5 °C 29.99in /  1015.5hPa NE 2.0mph /  3.2km/h 6.0mph /  9.7km/h 54% 0.00in /  0mm
10:04 56.8 °F /  13.8 °C 39.8 °F /  4.3 °C 29.98in /  1015.1hPa East 3.0mph /  4.8km/h 9.0mph /  14.5km/h 53% 0.00in /  0mm
10:09 56.8 °F /  13.8 °C 39.4 °F /  4.1 °C 29.98in /  1015.1hPa ENE 2.0mph /  3.2km/h 9.0mph /  14.5km/h 52% 0.00in /  0mm
10:14 56.9 °F /  13.8 °C 38.9 °F /  3.8 °C 29.98in /  1015.1hPa NE 2.0mph /  3.2km/h 11.0mph /  17.7km/h 51% 0.00in /  0mm
10:19 57.9 °F /  14.4 °C 39.9 °F /  4.4 °C 29.98in /  1015.1hPa ENE 4.0mph /  6.4km/h 10.0mph /  16.1km/h 51% 0.00in /  0mm
10:24 58.8 °F /  14.9 °C 40.2 °F /  4.6 °C 29.98in /  1015.1hPa East 4.0mph /  6.4km/h 10.0mph /  16.1km/h 50% 0.00in /  0mm
10:29 59.6 °F /  15.3 °C 39.9 °F /  4.4 °C 29.98in /  1015.1hPa East 3.0mph /  4.8km/h 8.0mph /  12.9km/h 48% 0.00in /  0mm
10:34 60.0 °F /  15.6 °C 39.1 °F /  3.9 °C 29.97in /  1014.8hPa East 4.0mph /  6.4km/h 10.0mph /  16.1km/h 46% 0.00in /  0mm
10:39 60.2 °F /  15.7 °C 38.8 °F /  3.8 °C 29.97in /  1014.8hPa East 5.0mph /  8km/h 11.0mph /  17.7km/h 45% 0.00in /  0mm
10:44 60.4 °F /  15.8 °C 37.8 °F /  3.2 °C 29.96in /  1014.4hPa East 6.0mph /  9.7km/h 14.0mph /  22.5km/h 43% 0.00in /  0mm
10:49 59.8 °F /  15.4 °C 38.4 °F /  3.6 °C 29.96in /  1014.4hPa SSE 8.0mph /  12.9km/h 11.0mph /  17.7km/h 45% 0.00in /  0mm
10:54 60.2 °F /  15.7 °C 37.6 °F /  3.1 °C 29.95in /  1014.1hPa East 6.0mph /  9.7km/h 14.0mph /  22.5km/h 43% 0.00in /  0mm
10:59 59.8 °F /  15.4 °C 37.8 °F /  3.2 °C 29.96in /  1014.4hPa ENE 6.0mph /  9.7km/h 14.0mph /  22.5km/h 44% 0.00in /  0mm
11:04 60.0 °F /  15.6 °C 38.6 °F /  3.7 °C 29.95in /  1014.1hPa ENE 3.0mph /  4.8km/h 12.0mph /  19.3km/h 45% 0.00in /  0mm
11:09 60.7 °F /  15.9 °C 38.1 °F /  3.4 °C 29.95in /  1014.1hPa ESE 9.0mph /  14.5km/h 11.0mph /  17.7km/h 43% 0.00in /  0mm
11:14 61.9 °F /  16.6 °C 39.1 °F /  3.9 °C 29.94in /  1013.8hPa ESE 11.0mph /  17.7km/h 17.0mph /  27.4km/h 43% 0.00in /  0mm
11:19 62.0 °F /  16.7 °C 39.2 °F /  4 °C 29.94in /  1013.8hPa ESE 16.0mph /  25.7km/h 16.0mph /  25.7km/h 43% 0.00in /  0mm
11:24 61.8 °F /  16.6 °C 38.4 °F /  3.6 °C 29.94in /  1013.8hPa SE 3.0mph /  4.8km/h 16.0mph /  25.7km/h 42% 0.00in /  0mm
11:29 62.0 °F /  16.7 °C 38.0 °F /  3.3 °C 29.93in /  1013.4hPa East 6.0mph /  9.7km/h 16.0mph /  25.7km/h 41% 0.00in /  0mm
11:34 61.7 °F /  16.5 °C 37.7 °F /  3.2 °C 29.93in /  1013.4hPa East 7.0mph /  11.3km/h 15.0mph /  24.1km/h 41% 0.00in /  0mm
11:39 61.3 °F /  16.3 °C 37.4 °F /  3 °C 29.92in /  1013.1hPa East 8.0mph /  12.9km/h 16.0mph /  25.7km/h 41% 0.00in /  0mm
11:44 61.0 °F /  16.1 °C 37.1 °F /  2.8 °C 29.92in /  1013.1hPa East 8.0mph /  12.9km/h 16.0mph /  25.7km/h 41% 0.00in /  0mm
11:49 61.4 °F /  16.3 °C 36.8 °F /  2.7 °C 29.92in /  1013.1hPa SSE 3.0mph /  4.8km/h 10.0mph /  16.1km/h 40% 0.00in /  0mm
11:54 61.6 °F /  16.4 °C 37.7 °F /  3.2 °C 29.92in /  1013.1hPa East 7.0mph /  11.3km/h 11.0mph /  17.7km/h 41% 0.00in /  0mm
11:59 61.6 °F /  16.4 °C 37.7 °F /  3.2 °C 29.92in /  1013.1hPa ESE 5.0mph /  8km/h 12.0mph /  19.3km/h 41% 0.00in /  0mm
12:04 61.4 °F /  16.3 °C 36.8 °F /  2.7 °C 29.91in /  1012.8hPa East 6.0mph /  9.7km/h 17.0mph /  27.4km/h 40% 0.00in /  0mm
12:09 61.3 °F /  16.3 °C 37.4 °F /  3 °C 29.91in /  1012.8hPa East 7.0mph /  11.3km/h 17.0mph /  27.4km/h 41% 0.00in /  0mm
12:14 61.4 °F /  16.3 °C 36.2 °F /  2.3 °C 29.91in /  1012.8hPa SE 3.0mph /  4.8km/h 13.0mph /  20.9km/h 39% 0.00in /  0mm
12:19 61.6 °F /  16.4 °C 37.0 °F /  2.8 °C 29.90in /  1012.4hPa SSE 4.0mph /  6.4km/h 18.0mph /  29km/h 40% 0.00in /  0mm
12:24 62.0 °F /  16.7 °C 37.4 °F /  3 °C 29.89in /  1012.1hPa NE 8.0mph /  12.9km/h 9.0mph /  14.5km/h 40% 0.00in /  0mm
12:29 61.9 °F /  16.6 °C 36.0 °F /  2.2 °C 29.89in /  1012.1hPa East 5.0mph /  8km/h 18.0mph /  29km/h 38% 0.00in /  0mm
12:34 62.1 °F /  16.7 °C 36.8 °F /  2.7 °C 29.88in /  1011.7hPa East 7.0mph /  11.3km/h 18.0mph /  29km/h 39% 0.00in /  0mm
12:39 62.4 °F /  16.9 °C 36.4 °F /  2.4 °C 29.88in /  1011.7hPa NE 3.0mph /  4.8km/h 18.0mph /  29km/h 38% 0.00in /  0mm
12:44 62.5 °F /  16.9 °C 36.5 °F /  2.5 °C 29.87in /  1011.4hPa ESE 4.0mph /  6.4km/h 17.0mph /  27.4km/h 38% 0.00in /  0mm
12:49 62.8 °F /  17.1 °C 36.1 °F /  2.3 °C 29.86in /  1011.1hPa East 9.0mph /  14.5km/h 18.0mph /  29km/h 37% 0.00in /  0mm
12:54 63.2 °F /  17.3 °C 37.2 °F /  2.9 °C 29.86in /  1011.1hPa SE 7.0mph /  11.3km/h 14.0mph /  22.5km/h 38% 0.00in /  0mm
12:59 63.5 °F /  17.5 °C 38.1 °F /  3.4 °C 29.86in /  1011.1hPa ESE 9.0mph /  14.5km/h 14.0mph /  22.5km/h 39% 0.00in /  0mm
13:04 63.4 °F /  17.4 °C 36.7 °F /  2.6 °C 29.86in /  1011.1hPa ESE 6.0mph /  9.7km/h 14.0mph /  22.5km/h 37% 0.00in /  0mm
13:09 64.1 °F /  17.8 °C 38.0 °F /  3.3 °C 29.86in /  1011.1hPa ESE 6.0mph /  9.7km/h 14.0mph /  22.5km/h 38% 0.00in /  0mm
13:14 64.7 °F /  18.2 °C 37.1 °F /  2.8 °C 29.85in /  1010.7hPa ESE 5.0mph /  8km/h 14.0mph /  22.5km/h 36% 0.00in /  0mm
13:19 64.2 °F /  17.9 °C 37.4 °F /  3 °C 29.85in /  1010.7hPa East 6.0mph /  9.7km/h 15.0mph /  24.1km/h 37% 0.00in /  0mm
13:24 64.2 °F /  17.9 °C 38.0 °F /  3.3 °C 29.85in /  1010.7hPa East 7.0mph /  11.3km/h 16.0mph /  25.7km/h 38% 0.00in /  0mm
13:29 64.5 °F /  18.1 °C 37.6 °F /  3.1 °C 29.85in /  1010.7hPa ESE 7.0mph /  11.3km/h 16.0mph /  25.7km/h 37% 0.00in /  0mm
13:34 64.4 °F /  18 °C 38.2 °F /  3.4 °C 29.84in /  1010.4hPa ESE 7.0mph /  11.3km/h 16.0mph /  25.7km/h 38% 0.00in /  0mm
13:39 64.4 °F /  18 °C 38.2 °F /  3.4 °C 29.83in /  1010hPa ESE 5.0mph /  8km/h 15.0mph /  24.1km/h 38% 0.00in /  0mm
13:44 65.2 °F /  18.4 °C 39.6 °F /  4.2 °C 29.83in /  1010hPa South 5.0mph /  8km/h 17.0mph /  27.4km/h 39% 0.00in /  0mm
13:49 65.5 °F /  18.6 °C 37.8 °F /  3.2 °C 29.83in /  1010hPa East 9.0mph /  14.5km/h 17.0mph /  27.4km/h 36% 0.00in /  0mm
13:54 66.9 °F /  19.4 °C 41.1 °F /  5.1 °C 29.82in /  1009.7hPa ENE 4.0mph /  6.4km/h 13.0mph /  20.9km/h 39% 0.00in /  0mm
13:59 68.1 °F /  20.1 °C 39.4 °F /  4.1 °C 29.82in /  1009.7hPa ESE 2.0mph /  3.2km/h 10.0mph /  16.1km/h 35% 0.00in /  0mm
14:04 68.3 °F /  20.2 °C 38.8 °F /  3.8 °C 29.81in /  1009.4hPa SSE 3.0mph /  4.8km/h 15.0mph /  24.1km/h 34% 0.00in /  0mm
14:09 68.0 °F /  20 °C 42.1 °F /  5.6 °C 29.81in /  1009.4hPa East 6.0mph /  9.7km/h 16.0mph /  25.7km/h 39% 0.00in /  0mm
14:14 68.4 °F /  20.2 °C 38.9 °F /  3.8 °C 29.81in /  1009.4hPa ENE 6.0mph /  9.7km/h 16.0mph /  25.7km/h 34% 0.00in /  0mm
14:19 68.7 °F /  20.4 °C 39.9 °F /  4.4 °C 29.80in /  1009hPa East 6.0mph /  9.7km/h 13.0mph /  20.9km/h 35% 0.00in /  0mm
14:24 68.3 °F /  20.2 °C 37.3 °F /  2.9 °C 29.80in /  1009hPa East 7.0mph /  11.3km/h 18.0mph /  29km/h 32% 0.00in /  0mm
14:29 68.3 °F /  20.2 °C 38.1 °F /  3.4 °C 29.80in /  1009hPa SSE 7.0mph /  11.3km/h 14.0mph /  22.5km/h 33% 0.00in /  0mm
14:34 68.5 °F /  20.3 °C 37.5 °F /  3.1 °C 29.79in /  1008.7hPa ENE 7.0mph /  11.3km/h 16.0mph /  25.7km/h 32% 0.00in /  0mm
14:39 68.3 °F /  20.2 °C 38.8 °F /  3.8 °C 29.79in /  1008.7hPa East 7.0mph /  11.3km/h 16.0mph /  25.7km/h 34% 0.00in /  0mm
14:44 68.8 °F /  20.4 °C 40.0 °F /  4.4 °C 29.79in /  1008.7hPa ESE 2.0mph /  3.2km/h 12.0mph /  19.3km/h 35% 0.00in /  0mm
14:49 69.1 °F /  20.6 °C 37.2 °F /  2.9 °C 29.78in /  1008.4hPa ESE 3.0mph /  4.8km/h 18.0mph /  29km/h 31% 0.00in /  0mm
14:54 68.4 °F /  20.2 °C 39.7 °F /  4.3 °C 29.77in /  1008hPa ENE 10.0mph /  16.1km/h 15.0mph /  24.1km/h 35% 0.00in /  0mm
14:59 68.9 °F /  20.5 °C 38.6 °F /  3.7 °C 29.77in /  1008hPa ENE 7.0mph /  11.3km/h 15.0mph /  24.1km/h 33% 0.00in /  0mm
15:04 68.8 °F /  20.4 °C 38.5 °F /  3.6 °C 29.76in /  1007.7hPa East 2.0mph /  3.2km/h 14.0mph /  22.5km/h 33% 0.00in /  0mm
15:09 69.1 °F /  20.6 °C 39.5 °F /  4.2 °C 29.76in /  1007.7hPa NE 4.0mph /  6.4km/h 14.0mph /  22.5km/h 34% 0.00in /  0mm
15:14 69.1 °F /  20.6 °C 38.8 °F /  3.8 °C 29.76in /  1007.7hPa East 7.0mph /  11.3km/h 19.0mph /  30.6km/h 33% 0.00in /  0mm
15:19 69.7 °F /  20.9 °C 39.3 °F /  4.1 °C 29.75in /  1007.3hPa East 7.0mph /  11.3km/h 19.0mph /  30.6km/h 33% 0.00in /  0mm
15:24 69.9 °F /  21.1 °C 37.9 °F /  3.3 °C 29.75in /  1007.3hPa East 7.0mph /  11.3km/h 16.0mph /  25.7km/h 31% 0.00in /  0mm
15:29 69.5 °F /  20.8 °C 38.3 °F /  3.5 °C 29.74in /  1007hPa ESE 7.0mph /  11.3km/h 16.0mph /  25.7km/h 32% 0.00in /  0mm
15:34 69.3 °F /  20.7 °C 38.9 °F /  3.8 °C 29.74in /  1007hPa ESE 6.0mph /  9.7km/h 14.0mph /  22.5km/h 33% 0.00in /  0mm
15:39 69.0 °F /  20.6 °C 39.4 °F /  4.1 °C 29.74in /  1007hPa SE 3.0mph /  4.8km/h 13.0mph /  20.9km/h 34% 0.00in /  0mm
15:44 68.8 °F /  20.4 °C 39.3 °F /  4.1 °C 29.74in /  1007hPa ESE 6.0mph /  9.7km/h 13.0mph /  20.9km/h 34% 0.00in /  0mm
15:49 68.0 °F /  20 °C 38.6 °F /  3.7 °C 29.73in /  1006.7hPa NE 3.0mph /  4.8km/h 16.0mph /  25.7km/h 34% 0.00in /  0mm
15:54 67.9 °F /  19.9 °C 38.5 °F /  3.6 °C 29.73in /  1006.7hPa East 8.0mph /  12.9km/h 17.0mph /  27.4km/h 34% 0.00in /  0mm
15:59 67.5 °F /  19.7 °C 38.9 °F /  3.8 °C 29.72in /  1006.3hPa SE 7.0mph /  11.3km/h 13.0mph /  20.9km/h 35% 0.00in /  0mm
16:04 67.6 °F /  19.8 °C 39.7 °F /  4.3 °C 29.72in /  1006.3hPa NE 7.0mph /  11.3km/h 14.0mph /  22.5km/h 36% 0.00in /  0mm
16:09 67.6 °F /  19.8 °C 39.0 °F /  3.9 °C 29.71in /  1006hPa ENE 4.0mph /  6.4km/h 13.0mph /  20.9km/h 35% 0.00in /  0mm
16:14 67.6 °F /  19.8 °C 39.7 °F /  4.3 °C 29.71in /  1006hPa SE 3.0mph /  4.8km/h 10.0mph /  16.1km/h 36% 0.00in /  0mm
16:19 67.5 °F /  19.7 °C 38.9 °F /  3.8 °C 29.71in /  1006hPa East 5.0mph /  8km/h 13.0mph /  20.9km/h 35% 0.00in /  0mm
16:24 67.2 °F /  19.6 °C 39.3 °F /  4.1 °C 29.70in /  1005.6hPa East 5.0mph /  8km/h 13.0mph /  20.9km/h 36% 0.00in /  0mm
16:29 67.1 °F /  19.5 °C 39.2 °F /  4 °C 29.70in /  1005.6hPa East 5.0mph /  8km/h 11.0mph /  17.7km/h 36% 0.00in /  0mm
16:34 67.0 °F /  19.4 °C 39.9 °F /  4.4 °C 29.70in /  1005.6hPa East 6.0mph /  9.7km/h 14.0mph /  22.5km/h 37% 0.00in /  0mm
16:39 67.0 °F /  19.4 °C 39.9 °F /  4.4 °C 29.70in /  1005.6hPa East 6.0mph /  9.7km/h 14.0mph /  22.5km/h 37% 0.00in /  0mm
16:44 67.0 °F /  19.4 °C 39.9 °F /  4.4 °C 29.70in /  1005.6hPa East 5.0mph /  8km/h 11.0mph /  17.7km/h 37% 0.00in /  0mm
16:49 67.1 °F /  19.5 °C 39.9 °F /  4.4 °C 29.69in /  1005.3hPa East 5.0mph /  8km/h 14.0mph /  22.5km/h 37% 0.00in /  0mm
16:54 67.0 °F /  19.4 °C 39.9 °F /  4.4 °C 29.69in /  1005.3hPa ENE 4.0mph /  6.4km/h 10.0mph /  16.1km/h 37% 0.00in /  0mm
16:59 67.1 °F /  19.5 °C 40.6 °F /  4.8 °C 29.69in /  1005.3hPa ENE 10.0mph /  16.1km/h 10.0mph /  16.1km/h 38% 0.00in /  0mm
17:04 67.1 °F /  19.5 °C 40.6 °F /  4.8 °C 29.69in /  1005.3hPa East 6.0mph /  9.7km/h 13.0mph /  20.9km/h 38% 0.00in /  0mm
17:09 67.3 °F /  19.6 °C 40.8 °F /  4.9 °C 29.69in /  1005.3hPa East 8.0mph /  12.9km/h 14.0mph /  22.5km/h 38% 0.00in /  0mm
17:14 67.2 °F /  19.6 °C 40.7 °F /  4.8 °C 29.69in /  1005.3hPa East 6.0mph /  9.7km/h 11.0mph /  17.7km/h 38% 0.00in /  0mm
17:19 67.2 °F /  19.6 °C 40.7 °F /  4.8 °C 29.68in /  1005hPa North 2.0mph /  3.2km/h 14.0mph /  22.5km/h 38% 0.00in /  0mm
17:24 67.1 °F /  19.5 °C 41.3 °F /  5.2 °C 29.68in /  1005hPa ENE 5.0mph /  8km/h 14.0mph /  22.5km/h 39% 0.00in /  0mm
17:29 67.0 °F /  19.4 °C 41.2 °F /  5.1 °C 29.67in /  1004.6hPa ENE 5.0mph /  8km/h 11.0mph /  17.7km/h 39% 0.00in /  0mm
17:34 67.0 °F /  19.4 °C 40.5 °F /  4.7 °C 29.67in /  1004.6hPa ENE 5.0mph /  8km/h 11.0mph /  17.7km/h 38% 0.00in /  0mm
17:39 66.9 °F /  19.4 °C 41.1 °F /  5.1 °C 29.67in /  1004.6hPa ENE 5.0mph /  8km/h 11.0mph /  17.7km/h 39% 0.00in /  0mm
17:44 67.0 °F /  19.4 °C 41.2 °F /  5.1 °C 29.67in /  1004.6hPa ENE 4.0mph /  6.4km/h 9.0mph /  14.5km/h 39% 0.00in /  0mm
17:49 67.0 °F /  19.4 °C 41.2 °F /  5.1 °C 29.66in /  1004.3hPa ENE 5.0mph /  8km/h 14.0mph /  22.5km/h 39% 0.00in /  0mm
17:54 67.0 °F /  19.4 °C 41.2 °F /  5.1 °C 29.66in /  1004.3hPa East 6.0mph /  9.7km/h 9.0mph /  14.5km/h 39% 0.00in /  0mm
17:59 66.9 °F /  19.4 °C 41.8 °F /  5.4 °C 29.66in /  1004.3hPa East 7.0mph /  11.3km/h 13.0mph /  20.9km/h 40% 0.00in /  0mm
18:04 66.8 °F /  19.3 °C 41.7 °F /  5.4 °C 29.66in /  1004.3hPa NE 4.0mph /  6.4km/h 10.0mph /  16.1km/h 40% 0.00in /  0mm
18:09 66.4 °F /  19.1 °C 42.6 °F /  5.9 °C 29.66in /  1004.3hPa NE 4.0mph /  6.4km/h 13.0mph /  20.9km/h 42% 0.00in /  0mm
18:14 65.8 °F /  18.8 °C 42.1 °F /  5.6 °C 29.65in /  1003.9hPa NE 9.0mph /  14.5km/h 12.0mph /  19.3km/h 42% 0.00in /  0mm
18:19 65.6 °F /  18.7 °C 42.5 °F /  5.8 °C 29.65in /  1003.9hPa ENE 8.0mph /  12.9km/h 11.0mph /  17.7km/h 43% 0.00in /  0mm
18:24 65.4 °F /  18.6 °C 42.9 °F /  6.1 °C 29.66in /  1004.3hPa NE 5.0mph /  8km/h 11.0mph /  17.7km/h 44% 0.00in /  0mm
18:29 65.0 °F /  18.3 °C 42.5 °F /  5.8 °C 29.66in /  1004.3hPa NE 7.0mph /  11.3km/h 15.0mph /  24.1km/h 44% 0.00in /  0mm
18:34 64.6 °F /  18.1 °C 42.2 °F /  5.7 °C 29.65in /  1003.9hPa NE 8.0mph /  12.9km/h 15.0mph /  24.1km/h 44% 0.00in /  0mm
18:39 64.3 °F /  17.9 °C 42.5 °F /  5.8 °C 29.65in /  1003.9hPa ENE 7.0mph /  11.3km/h 12.0mph /  19.3km/h 45% 0.00in /  0mm
18:44 64.0 °F /  17.8 °C 42.2 °F /  5.7 °C 29.66in /  1004.3hPa ESE 4.0mph /  6.4km/h 7.0mph /  11.3km/h 45% 0.00in /  0mm
18:49 63.8 °F /  17.7 °C 42.0 °F /  5.6 °C 29.65in /  1003.9hPa NE 4.0mph /  6.4km/h 9.0mph /  14.5km/h 45% 0.00in /  0mm
18:54 63.6 °F /  17.6 °C 41.9 °F /  5.5 °C 29.65in /  1003.9hPa East 7.0mph /  11.3km/h 9.0mph /  14.5km/h 45% 0.00in /  0mm
18:59 63.5 °F /  17.5 °C 42.3 °F /  5.7 °C 29.65in /  1003.9hPa East 4.0mph /  6.4km/h 9.0mph /  14.5km/h 46% 0.00in /  0mm
19:04 63.3 °F /  17.4 °C 42.2 °F /  5.7 °C 29.65in /  1003.9hPa ENE 3.0mph /  4.8km/h 8.0mph /  12.9km/h 46% 0.00in /  0mm
19:09 63.1 °F /  17.3 °C 42.0 °F /  5.6 °C 29.64in /  1003.6hPa NE 4.0mph /  6.4km/h 10.0mph /  16.1km/h 46% 0.00in /  0mm
19:14 62.9 °F /  17.2 °C 42.4 °F /  5.8 °C 29.63in /  1003.3hPa ESE 7.0mph /  11.3km/h 9.0mph /  14.5km/h 47% 0.00in /  0mm
19:19 62.6 °F /  17 °C 42.1 °F /  5.6 °C 29.63in /  1003.3hPa NNE 3.0mph /  4.8km/h 9.0mph /  14.5km/h 47% 0.00in /  0mm
19:24 62.4 °F /  16.9 °C 41.9 °F /  5.5 °C 29.62in /  1002.9hPa NE 4.0mph /  6.4km/h 11.0mph /  17.7km/h 47% 0.00in /  0mm
19:29 62.3 °F /  16.8 °C 42.3 °F /  5.7 °C 29.62in /  1002.9hPa ENE 7.0mph /  11.3km/h 13.0mph /  20.9km/h 48% 0.00in /  0mm
19:34 62.2 °F /  16.8 °C 42.3 °F /  5.7 °C 29.62in /  1002.9hPa ENE 5.0mph /  8km/h 13.0mph /  20.9km/h 48% 0.00in /  0mm
19:39 62.0 °F /  16.7 °C 42.1 °F /  5.6 °C 29.62in /  1002.9hPa ENE 4.0mph /  6.4km/h 9.0mph /  14.5km/h 48% 0.00in /  0mm
19:44 61.9 °F /  16.6 °C 42.5 °F /  5.8 °C 29.61in /  1002.6hPa ENE 4.0mph /  6.4km/h 9.0mph /  14.5km/h 49% 0.00in /  0mm
19:49 61.8 °F /  16.6 °C 42.4 °F /  5.8 °C 29.61in /  1002.6hPa ENE 4.0mph /  6.4km/h 7.0mph /  11.3km/h 49% 0.00in /  0mm
19:54 61.7 °F /  16.5 °C 42.3 °F /  5.7 °C 29.61in /  1002.6hPa ENE 2.0mph /  3.2km/h 6.0mph /  9.7km/h 49% 0.00in /  0mm
19:59 61.6 °F /  16.4 °C 42.8 °F /  6 °C 29.61in /  1002.6hPa ENE 1.0mph /  1.6km/h 8.0mph /  12.9km/h 50% 0.00in /  0mm
20:04 61.5 °F /  16.4 °C 42.7 °F /  5.9 °C 29.61in /  1002.6hPa East 2.0mph /  3.2km/h 8.0mph /  12.9km/h 50% 0.00in /  0mm
20:09 61.5 °F /  16.4 °C 42.7 °F /  5.9 °C 29.61in /  1002.6hPa East 4.0mph /  6.4km/h 10.0mph /  16.1km/h 50% 0.00in /  0mm
20:14 61.6 °F /  16.4 °C 42.8 °F /  6 °C 29.61in /  1002.6hPa East 4.0mph /  6.4km/h 10.0mph /  16.1km/h 50% 0.00in /  0mm
20:19 61.6 °F /  16.4 °C 42.2 °F /  5.7 °C 29.61in /  1002.6hPa East 4.0mph /  6.4km/h 9.0mph /  14.5km/h 49% 0.00in /  0mm
20:24 61.6 °F /  16.4 °C 42.8 °F /  6 °C 29.60in /  1002.3hPa ESE 3.0mph /  4.8km/h 7.0mph /  11.3km/h 50% 0.00in /  0mm
20:29 61.8 °F /  16.6 °C 43.0 °F /  6.1 °C 29.60in /  1002.3hPa SE 3.0mph /  4.8km/h 14.0mph /  22.5km/h 50% 0.00in /  0mm
20:34 61.8 °F /  16.6 °C 43.0 °F /  6.1 °C 29.61in /  1002.6hPa ESE 4.0mph /  6.4km/h 14.0mph /  22.5km/h 50% 0.00in /  0mm
20:39 61.7 °F /  16.5 °C 43.4 °F /  6.3 °C 29.61in /  1002.6hPa SE 3.0mph /  4.8km/h 8.0mph /  12.9km/h 51% 0.00in /  0mm
20:44 61.8 °F /  16.6 °C 43.5 °F /  6.4 °C 29.61in /  1002.6hPa SE 4.0mph /  6.4km/h 8.0mph /  12.9km/h 51% 0.00in /  0mm
20:49 61.8 °F /  16.6 °C 44.5 °F /  6.9 °C 29.61in /  1002.6hPa SSE 4.0mph /  6.4km/h 11.0mph /  17.7km/h 53% 0.00in /  0mm
20:54 62.1 °F /  16.7 °C 45.2 °F /  7.3 °C 29.61in /  1002.6hPa South 4.0mph /  6.4km/h 18.0mph /  29km/h 54% 0.00in /  0mm
20:59 62.1 °F /  16.7 °C 45.7 °F /  7.6 °C 29.61in /  1002.6hPa SE 4.0mph /  6.4km/h 13.0mph /  20.9km/h 55% 0.00in /  0mm
21:04 61.9 °F /  16.6 °C 47.0 °F /  8.3 °C 29.61in /  1002.6hPa SSE 6.0mph /  9.7km/h 16.0mph /  25.7km/h 58% 0.00in /  0mm
21:09 61.5 °F /  16.4 °C 47.5 °F /  8.6 °C 29.61in /  1002.6hPa SSE 3.0mph /  4.8km/h 13.0mph /  20.9km/h 60% 0.00in /  0mm
21:14 61.0 °F /  16.1 °C 48.3 °F /  9.1 °C 29.60in /  1002.3hPa SSE 6.0mph /  9.7km/h 13.0mph /  20.9km/h 63% 0.00in /  0mm
21:19 60.6 °F /  15.9 °C 48.4 °F /  9.1 °C 29.60in /  1002.3hPa SSE 5.0mph /  8km/h 12.0mph /  19.3km/h 64% 0.00in /  0mm
21:24 60.1 °F /  15.6 °C 48.7 °F /  9.3 °C 29.60in /  1002.3hPa SSE 4.0mph /  6.4km/h 9.0mph /  14.5km/h 66% 0.01in /  0.25mm
21:29 59.7 °F /  15.4 °C 49.1 °F /  9.5 °C 29.59in /  1001.9hPa SE 4.0mph /  6.4km/h 8.0mph /  12.9km/h 68% 0.01in /  0.25mm
21:34 59.2 °F /  15.1 °C 49.0 °F /  9.4 °C 29.59in /  1001.9hPa SE 4.0mph /  6.4km/h 8.0mph /  12.9km/h 69% 0.01in /  0.25mm
21:39 59.0 °F /  15 °C 49.2 °F /  9.6 °C 29.59in /  1001.9hPa SE 3.0mph /  4.8km/h 8.0mph /  12.9km/h 70% 0.01in /  0.25mm
21:44 58.7 °F /  14.8 °C 49.3 °F /  9.6 °C 29.59in /  1001.9hPa SE 3.0mph /  4.8km/h 4.0mph /  6.4km/h 71% 0.02in /  0.51mm
21:49 58.5 °F /  14.7 °C 49.5 °F /  9.7 °C 29.58in /  1001.6hPa SE 2.0mph /  3.2km/h 5.0mph /  8km/h 72% 0.02in /  0.51mm
21:54 58.2 °F /  14.6 °C 49.2 °F /  9.6 °C 29.58in /  1001.6hPa SE 5.0mph /  8km/h 6.0mph /  9.7km/h 72% 0.02in /  0.51mm
21:59 57.9 °F /  14.4 °C 49.3 °F /  9.6 °C 29.58in /  1001.6hPa SSE 1.0mph /  1.6km/h 5.0mph /  8km/h 73% 0.02in /  0.51mm
22:04 57.8 °F /  14.3 °C 49.6 °F /  9.8 °C 29.58in /  1001.6hPa SSE 1.0mph /  1.6km/h 5.0mph /  8km/h 74% 0.02in /  0.51mm
22:09 57.6 °F /  14.2 °C 49.4 °F /  9.7 °C 29.57in /  1001.2hPa SE 2.0mph /  3.2km/h 3.0mph /  4.8km/h 74% 0.02in /  0.51mm
22:14 57.5 °F /  14.2 °C 49.6 °F /  9.8 °C 29.57in /  1001.2hPa East 1.0mph /  1.6km/h 5.0mph /  8km/h 75% 0.02in /  0.51mm
22:19 57.3 °F /  14.1 °C 49.4 °F /  9.7 °C 29.57in /  1001.2hPa ESE 1.0mph /  1.6km/h 5.0mph /  8km/h 75% 0.02in /  0.51mm
22:24 57.2 °F /  14 °C 49.7 °F /  9.8 °C 29.57in /  1001.2hPa East 1.0mph /  1.6km/h 3.0mph /  4.8km/h 76% 0.02in /  0.51mm
22:29 57.1 °F /  13.9 °C 50.0 °F /  10 °C 29.56in /  1000.9hPa East 1.0mph /  1.6km/h 3.0mph /  4.8km/h 77% 0.02in /  0.51mm
22:34 56.9 °F /  13.8 °C 49.8 °F /  9.9 °C 29.56in /  1000.9hPa East 1.0mph /  1.6km/h 3.0mph /  4.8km/h 77% 0.02in /  0.51mm
22:39 56.8 °F /  13.8 °C 50.0 °F /  10 °C 29.56in /  1000.9hPa ENE 1.0mph /  1.6km/h 3.0mph /  4.8km/h 78% 0.03in /  0.76mm
22:44 56.7 °F /  13.7 °C 50.3 °F /  10.2 °C 29.55in /  1000.6hPa ENE 1.0mph /  1.6km/h 2.0mph /  3.2km/h 79% 0.02in /  0.51mm
22:49 56.4 °F /  13.6 °C 50.0 °F /  10 °C 29.55in /  1000.6hPa NE 2.0mph /  3.2km/h 4.0mph /  6.4km/h 79% 0.03in /  0.76mm
22:54 56.3 °F /  13.5 °C 50.2 °F /  10.1 °C 29.55in /  1000.6hPa NE 1.0mph /  1.6km/h 4.0mph /  6.4km/h 80% 0.03in /  0.76mm
22:59 56.1 °F /  13.4 °C 50.3 °F /  10.2 °C 29.54in /  1000.2hPa Calm   3.0mph /  4.8km/h 81% 0.04in /  1.02mm
23:04 56.0 °F /  13.3 °C 50.6 °F /  10.3 °C 29.54in /  1000.2hPa Calm     82% 0.05in /  1.27mm
23:09 55.8 °F /  13.2 °C 50.4 °F /  10.2 °C 29.54in /  1000.2hPa Calm     82% 0.06in /  1.52mm
23:14 55.7 °F /  13.2 °C 50.6 °F /  10.3 °C 29.53in /  999.9hPa Calm     83% 0.07in /  1.78mm
23:19 55.5 °F /  13.1 °C 50.7 °F /  10.4 °C 29.53in /  999.9hPa NE 2.0mph /  3.2km/h 3.0mph /  4.8km/h 84% 0.09in /  2.29mm
23:24 55.3 °F /  12.9 °C 50.5 °F /  10.3 °C 29.53in /  999.9hPa NE 3.0mph /  4.8km/h 4.0mph /  6.4km/h 84% 0.10in /  2.54mm
23:29 54.8 °F /  12.7 °C 50.4 °F /  10.2 °C 29.53in /  999.9hPa NE 2.0mph /  3.2km/h 4.0mph /  6.4km/h 85% 0.13in /  3.3mm
23:34 54.6 °F /  12.6 °C 50.8 °F /  10.4 °C 29.52in /  999.5hPa NE 2.0mph /  3.2km/h 5.0mph /  8km/h 87% 0.16in /  4.06mm
23:39 54.5 °F /  12.5 °C 50.7 °F /  10.4 °C 29.52in /  999.5hPa NE 2.0mph /  3.2km/h 5.0mph /  8km/h 87% 0.18in /  4.57mm
23:44 54.4 °F /  12.4 °C 50.6 °F /  10.3 °C 29.51in /  999.2hPa NE 2.0mph /  3.2km/h 5.0mph /  8km/h 87% 0.21in /  5.33mm
23:49 54.4 °F /  12.4 °C 50.6 °F /  10.3 °C 29.51in /  999.2hPa NE 3.0mph /  4.8km/h 5.0mph /  8km/h 87% 0.23in /  5.84mm
23:54 54.4 °F /  12.4 °C 50.9 °F /  10.5 °C 29.51in /  999.2hPa NE 4.0mph /  6.4km/h 5.0mph /  8km/h 88% 0.25in /  6.35mm
23:59 54.4 °F /  12.4 °C 50.9 °F /  10.5 °C 29.50in /  998.9hPa ENE 3.0mph /  4.8km/h 6.0mph /  9.7km/h 88% 0.25in /  6.35mm
Buffalo, New York, USA
Compliments of Weather Underground - 2.5 mb